Time;durP1;ratioP1;P1;durP2;ratioP2;P2;SDS_P1;SDS_P2;PMS_P1;PMS_P2;Temp;Humidity;BMP_temperature;BMP_pressure;BME280_temperature;BME280_humidity;BME280_pressure;Samples;Min_cycle;Max_cycle;Signal;HPM_P1;HPM_P2
2023/01/08 00:00:21;;;;;;;0.40;0.30;;;20.50;46.70;;;;;;6066974;29;19972;-46
2023/01/08 00:03:23;;;;;;;0.20;0.20;;;20.70;46.60;;;;;;6066765;29;20041;-45
2023/01/08 00:06:25;;;;;;;0.28;0.25;;;20.90;46.70;;;;;;6051329;29;20045;-47
2023/01/08 00:09:27;;;;;;;;;;;20.80;46.60;;;;;;6052284;29;20061;-47
2023/01/08 00:12:28;;;;;;;1.00;0.38;;;20.70;46.90;;;;;;6068287;29;19931;-48
2023/01/08 00:15:30;;;;;;;0.68;0.20;;;20.70;46.70;;;;;;6066712;29;20053;-47
2023/01/08 00:18:31;;;;;;;0.20;0.20;;;20.80;46.60;;;;;;6069873;29;20434;-48
2023/01/08 00:21:33;;;;;;;0.40;0.20;;;20.90;46.70;;;;;;6072425;29;20041;-48
2023/01/08 00:24:34;;;;;;;;;;;20.80;46.60;;;;;;6071001;29;20041;-48
2023/01/08 00:27:36;;;;;;;0.30;0.10;;;20.50;46.80;;;;;;6070760;29;20360;-46
2023/01/08 00:30:37;;;;;;;;;;;20.50;46.50;;;;;;6072748;29;20052;-48
2023/01/08 00:33:39;;;;;;;;;;;20.80;46.90;;;;;;6070435;29;19928;-49
2023/01/08 00:36:41;;;;;;;0.40;0.28;;;20.90;47.00;;;;;;6037333;29;19924;-46
2023/01/08 00:39:42;;;;;;;0.40;0.20;;;20.80;46.80;;;;;;6068948;29;20048;-50
2023/01/08 00:42:45;;;;;;;0.60;0.22;;;20.60;46.50;;;;;;6052885;29;20053;-46
2023/01/08 00:45:50;;;;;;;1.20;0.50;;;20.60;46.10;;;;;;6063543;29;20589;-45
2023/01/08 00:48:52;;;;;;;0.60;0.30;;;21.20;46.60;;;;;;6075263;29;20045;-47
2023/01/08 00:51:53;;;;;;;;;;;20.70;46.30;;;;;;6073137;29;20045;-47
2023/01/08 00:54:55;;;;;;;0.40;0.20;;;20.60;46.60;;;;;;6071593;29;20399;-44
2023/01/08 00:57:57;;;;;;;0.20;0.10;;;20.40;46.30;;;;;;6073129;29;20052;-46
2023/01/08 01:00:59;;;;;;;0.38;0.10;;;20.60;46.30;;;;;;6068097;29;20045;-47
2023/01/08 01:04:00;;;;;;;0.45;0.30;;;20.90;46.40;;;;;;6067131;29;20124;-47
2023/01/08 01:07:03;;;;;;;0.30;0.30;;;20.80;46.40;;;;;;6050093;29;20109;-48
2023/01/08 01:10:05;;;;;;;1.13;0.10;;;20.70;46.40;;;;;;6052484;29;20049;-48
2023/01/08 01:13:06;;;;;;;0.20;0.20;;;20.70;46.30;;;;;;6069919;29;20044;-49
2023/01/08 01:16:08;;;;;;;;;;;20.80;46.40;;;;;;6070047;29;20045;-47
2023/01/08 01:19:10;;;;;;;;;;;20.80;46.60;;;;;;6065242;29;19927;-50
2023/01/08 01:22:11;;;;;;;0.30;0.17;;;20.80;46.70;;;;;;6046965;29;19931;-47
2023/01/08 01:25:12;;;;;;;;;;;20.70;46.40;;;;;;6065204;29;20049;-48
2023/01/08 01:28:15;;;;;;;0.10;0.10;;;20.90;46.80;;;;;;6064516;29;19923;-47
2023/01/08 01:31:17;;;;;;;0.32;0.22;;;20.30;46.30;;;;;;6048098;29;20073;-48
2023/01/08 01:34:20;;;;;;;0.30;0.30;;;20.70;46.40;;;;;;6063224;29;20055;-47
2023/01/08 01:37:21;;;;;;;0.20;0.20;;;20.70;46.40;;;;;;6046438;29;20045;-47
2023/01/08 01:40:23;;;;;;;;;;;20.30;46.20;;;;;;6065707;29;20033;-49
2023/01/08 01:43:40;;;;;;;0.28;0.20;;;21.00;46.80;;;;;;6064509;29;19924;-47
2023/01/08 01:46:42;;;;;;;0.25;0.25;;;20.70;46.40;;;;;;6064726;29;20096;-47
2023/01/08 01:49:52;;;;;;;0.35;0.20;;;20.80;46.50;;;;;;6064704;29;20076;-47
2023/01/08 01:52:58;;;;;;;0.10;0.10;;;20.70;46.30;;;;;;6063594;29;20056;-47
2023/01/08 01:56:02;;;;;;;0.22;0.20;;;20.60;46.10;;;;;;6062695;29;20048;-49
2023/01/08 01:59:04;;;;;;;0.10;0.10;;;20.60;46.10;;;;;;6061954;29;20049;-48
2023/01/08 02:02:06;;;;;;;0.22;0.20;;;20.60;46.00;;;;;;6061396;29;20045;-48
2023/01/08 02:05:08;;;;;;;0.32;0.20;;;20.70;46.00;;;;;;6060429;29;20116;-50
2023/01/08 02:08:12;;;;;;;0.20;0.20;;;20.70;45.90;;;;;;6059935;29;20093;-46
2023/01/08 02:11:21;;;;;;;0.20;0.20;;;20.70;45.80;;;;;;6060245;29;20481;-49
2023/01/08 02:14:28;;;;;;;0.10;0.10;;;20.60;45.70;;;;;;6061522;29;20037;-49
2023/01/08 02:17:39;;;;;;;0.20;0.17;;;20.60;46.30;;;;;;6029646;29;20067;-48
2023/01/08 02:20:44;;;;;;;0.10;0.10;;;20.60;45.60;;;;;;6061877;29;20045;-49
2023/01/08 02:23:48;;;;;;;0.40;0.40;;;20.90;45.80;;;;;;6045312;29;20042;-48
2023/01/08 02:26:54;;;;;;;0.10;0.10;;;20.70;45.60;;;;;;6044163;29;20082;-47
2023/01/08 02:29:56;;;;;;;0.20;0.20;;;20.60;45.50;;;;;;6061342;29;20045;-46
2023/01/08 02:32:57;;;;;;;0.20;0.20;;;20.80;45.60;;;;;;6045089;29;20089;-45
2023/01/08 02:36:18;;;;;;;0.50;0.47;;;20.80;45.60;;;;;;6069828;29;20048;-47
2023/01/08 02:39:48;;;;;;;0.20;0.10;;;20.70;45.60;;;;;;6067930;29;20040;-45
2023/01/08 02:42:58;;;;;;;0.40;0.20;;;20.60;45.50;;;;;;6054273;29;20048;-49
2023/01/08 02:46:01;;;;;;;0.38;0.20;;;20.70;45.50;;;;;;6066665;29;20037;-46
2023/01/08 02:49:06;;;;;;;0.30;0.20;;;20.40;45.30;;;;;;6052973;29;20568;-49
2023/01/08 02:52:11;;;;;;;0.40;0.20;;;20.70;45.40;;;;;;6070364;29;20049;-45
2023/01/08 02:55:13;;;;;;;0.20;0.20;;;20.70;45.40;;;;;;6071070;29;20049;-46
2023/01/08 02:58:15;;;;;;;0.25;0.20;;;20.70;45.40;;;;;;6069504;29;20052;-45
2023/01/08 03:01:19;;;;;;;0.20;0.20;;;20.80;45.50;;;;;;6076135;29;20469;-47
2023/01/08 03:04:23;;;;;;;0.50;0.30;;;20.70;45.40;;;;;;6077327;29;20049;-48
2023/01/08 03:07:25;;;;;;;0.20;0.20;;;20.60;45.30;;;;;;6076943;29;20044;-46
2023/01/08 03:10:29;;;;;;;0.30;0.25;;;20.60;45.40;;;;;;6076997;29;20041;-45
2023/01/08 03:13:37;;;;;;;0.30;0.20;;;20.80;45.40;;;;;;6076594;29;20077;-46
2023/01/08 03:16:41;;;;;;;0.17;0.17;;;20.70;45.30;;;;;;6056727;29;20049;-45
2023/01/08 03:19:48;;;;;;;0.25;0.20;;;20.70;45.30;;;;;;6070686;29;20146;-47
2023/01/08 03:22:53;;;;;;;0.40;0.20;;;20.60;45.20;;;;;;6057765;29;20041;-45
2023/01/08 03:25:57;;;;;;;0.30;0.20;;;20.70;45.30;;;;;;6074940;29;20041;-45
2023/01/08 03:29:00;;;;;;;0.30;0.20;;;20.80;45.30;;;;;;6075925;29;20049;-45
2023/01/08 03:32:06;;;;;;;0.20;0.20;;;20.60;45.20;;;;;;6076548;29;20105;-45
2023/01/08 03:35:09;;;;;;;0.20;0.20;;;20.70;45.20;;;;;;6075363;29;20132;-48
2023/01/08 03:38:16;;;;;;;0.20;0.20;;;20.60;45.10;;;;;;6058198;29;20057;-50
2023/01/08 03:41:21;;;;;;;0.10;0.10;;;20.60;45.10;;;;;;6077802;29;20482;-46
2023/01/08 03:44:23;;;;;;;0.30;0.20;;;20.60;45.10;;;;;;6077837;29;20066;-50
2023/01/08 03:47:26;;;;;;;0.20;0.20;;;20.60;45.20;;;;;;6077855;29;20052;-47
2023/01/08 03:50:30;;;;;;;0.45;0.30;;;20.50;45.10;;;;;;6077232;29;20052;-46
2023/01/08 03:53:31;;;;;;;0.32;0.20;;;20.60;45.10;;;;;;6076166;29;20048;-51
2023/01/08 03:56:32;;;;;;;0.20;0.20;;;20.60;45.20;;;;;;6077383;29;20045;-46
2023/01/08 03:59:34;;;;;;;0.30;0.10;;;20.70;45.30;;;;;;6077998;29;20052;-46
2023/01/08 04:02:36;;;;;;;0.80;0.20;;;20.70;45.40;;;;;;6077624;29;20049;-46
2023/01/08 04:05:37;;;;;;;0.15;0.10;;;20.60;45.30;;;;;;6077840;29;20092;-46
2023/01/08 04:08:39;;;;;;;0.10;0.10;;;20.60;45.40;;;;;;6077605;29;20053;-45
2023/01/08 04:11:40;;;;;;;0.35;0.20;;;20.60;45.30;;;;;;6077660;29;20045;-47
2023/01/08 04:14:42;;;;;;;0.22;0.17;;;20.70;45.40;;;;;;6077865;29;20052;-47
2023/01/08 04:17:44;;;;;;;0.20;0.20;;;20.60;45.40;;;;;;6077561;29;20049;-45
2023/01/08 04:20:46;;;;;;;0.40;0.13;;;20.50;45.30;;;;;;6077313;29;20071;-51
2023/01/08 04:23:47;;;;;;;0.20;0.20;;;20.50;45.30;;;;;;6061287;29;20056;-46
2023/01/08 04:26:49;;;;;;;0.22;0.20;;;20.60;45.20;;;;;;6076999;29;20053;-47
2023/01/08 04:29:51;;;;;;;0.10;0.10;;;20.70;45.40;;;;;;6076796;29;20048;-47
2023/01/08 04:32:52;;;;;;;0.52;0.28;;;20.60;45.30;;;;;;6078083;29;20047;-47
2023/01/08 04:35:54;;;;;;;0.43;0.20;;;20.60;45.30;;;;;;6077521;29;20045;-45
2023/01/08 04:38:55;;;;;;;0.20;0.10;;;20.60;45.20;;;;;;6077486;29;20041;-48
2023/01/08 04:41:57;;;;;;;0.40;0.30;;;20.60;45.30;;;;;;6077388;29;20413;-47
2023/01/08 04:44:59;;;;;;;0.40;0.20;;;20.50;45.20;;;;;;6077861;29;20041;-47
2023/01/08 04:48:00;;;;;;;0.20;0.17;;;20.50;45.20;;;;;;6077065;29;20041;-45
2023/01/08 04:51:03;;;;;;;0.20;0.20;;;20.50;45.00;;;;;;6077062;29;20048;-48
2023/01/08 04:54:04;;;;;;;0.20;0.20;;;20.60;45.10;;;;;;6076587;29;20056;-49
2023/01/08 04:57:06;;;;;;;0.30;0.20;;;20.20;44.80;;;;;;6059945;29;20058;-48
2023/01/08 05:00:09;;;;;;;0.35;0.30;;;20.40;44.80;;;;;;6076597;29;20056;-47
2023/01/08 05:03:11;;;;;;;0.30;0.30;;;20.60;44.90;;;;;;6060153;29;20052;-47
2023/01/08 05:06:12;;;;;;;0.65;0.30;;;20.50;44.90;;;;;;6077345;29;20045;-47
2023/01/08 05:09:14;;;;;;;0.10;0.10;;;20.50;44.90;;;;;;6076160;29;20045;-50
2023/01/08 05:12:15;;;;;;;0.20;0.20;;;20.50;44.80;;;;;;6075970;29;20105;-47
2023/01/08 05:15:17;;;;;;;0.30;0.30;;;20.60;44.90;;;;;;6076025;29;20045;-45
2023/01/08 05:18:19;;;;;;;0.22;0.20;;;20.50;44.80;;;;;;6075759;29;20112;-45
2023/01/08 05:21:20;;;;;;;0.10;0.10;;;20.40;44.70;;;;;;6075851;29;20482;-47
2023/01/08 05:24:22;;;;;;;0.32;0.17;;;20.60;44.70;;;;;;6075897;29;20045;-47
2023/01/08 05:27:23;;;;;;;0.45;0.20;;;20.50;44.70;;;;;;6076065;29;20069;-46
2023/01/08 05:30:25;;;;;;;0.10;0.10;;;20.70;44.80;;;;;;6076432;29;20040;-45
2023/01/08 05:33:27;;;;;;;0.47;0.22;;;20.60;44.70;;;;;;6075958;29;20114;-46
2023/01/08 05:36:29;;;;;;;;;;;20.50;44.60;;;;;;6076090;29;20052;-47
2023/01/08 05:39:31;;;;;;;0.20;0.20;;;20.70;45.10;;;;;;6075705;29;19959;-47
2023/01/08 05:42:33;;;;;;;;;;;20.60;44.80;;;;;;6076601;29;20045;-49
2023/01/08 05:45:35;;;;;;;0.28;0.25;;;20.50;44.90;;;;;;6076300;29;19924;-49
2023/01/08 05:48:37;;;;;;;0.60;0.30;;;20.50;44.80;;;;;;6075673;29;20049;-45
2023/01/08 05:51:38;;;;;;;;;;;20.40;45.30;;;;;;6076223;29;20048;-47
2023/01/08 05:54:39;;;;;;;0.20;0.10;;;20.50;45.10;;;;;;6075571;29;19935;-46
2023/01/08 05:57:41;;;;;;;0.13;0.10;;;20.50;44.80;;;;;;6075474;29;20049;-46
2023/01/08 06:00:43;;;;;;;0.10;0.10;;;20.40;44.80;;;;;;6076373;29;20526;-46
2023/01/08 06:03:44;;;;;;;0.20;0.20;;;20.50;44.80;;;;;;6076008;29;20041;-47
2023/01/08 06:06:45;;;;;;;0.10;0.10;;;20.50;44.80;;;;;;6075384;29;20049;-45
2023/01/08 06:09:47;;;;;;;0.30;0.20;;;20.10;44.60;;;;;;6075547;29;20119;-47
2023/01/08 06:12:48;;;;;;;;;;;20.50;44.70;;;;;;6075748;29;20041;-46
2023/01/08 06:15:50;;;;;;;0.47;0.30;;;20.80;45.20;;;;;;6075512;29;19952;-44
2023/01/08 06:18:52;;;;;;;0.85;0.28;;;20.40;44.80;;;;;;6075807;29;20069;-50
2023/01/08 06:21:53;;;;;;;0.25;0.17;;;20.30;44.60;;;;;;6075935;29;20053;-48
2023/01/08 06:24:55;;;;;;;0.50;0.20;;;20.50;44.80;;;;;;6058969;29;20097;-45
2023/01/08 06:27:56;;;;;;;0.20;0.20;;;20.60;44.80;;;;;;6075689;29;20064;-48
2023/01/08 06:30:59;;;;;;;0.50;0.30;;;20.50;44.70;;;;;;6075261;29;20074;-46
2023/01/08 06:34:01;;;;;;;0.50;0.30;;;20.40;44.60;;;;;;6028627;29;20051;-45
2023/01/08 06:37:03;;;;;;;0.40;0.40;;;20.50;44.60;;;;;;6076016;29;20041;-45
2023/01/08 06:40:05;;;;;;;0.15;0.10;;;20.50;44.70;;;;;;6075912;29;20045;-46
2023/01/08 06:43:06;;;;;;;0.25;0.20;;;20.60;44.70;;;;;;6075213;29;20101;-46
2023/01/08 06:46:09;;;;;;;0.20;0.20;;;20.50;44.70;;;;;;6075913;29;20052;-49
2023/01/08 06:49:11;;;;;;;0.52;0.20;;;20.40;44.60;;;;;;6075537;29;20053;-49
2023/01/08 06:52:12;;;;;;;;;;;20.30;44.50;;;;;;6075076;29;20037;-47
2023/01/08 06:55:13;;;;;;;0.35;0.20;;;20.50;45.10;;;;;;6058420;29;19923;-47
2023/01/08 06:58:15;;;;;;;0.50;0.20;;;20.50;44.70;;;;;;6075217;29;20049;-45
2023/01/08 07:01:17;;;;;;;0.10;0.10;;;20.70;44.90;;;;;;6074796;29;20049;-45
2023/01/08 07:04:19;;;;;;;0.40;0.20;;;20.40;44.60;;;;;;6074514;29;20045;-47
2023/01/08 07:07:21;;;;;;;0.50;0.30;;;20.50;44.70;;;;;;6074557;29;20041;-46
2023/01/08 07:10:22;;;;;;;0.43;0.28;;;20.40;44.70;;;;;;6074670;29;20041;-46
2023/01/08 07:13:24;;;;;;;0.30;0.30;;;20.50;44.70;;;;;;6074072;29;20069;-48
2023/01/08 07:16:26;;;;;;;0.47;0.20;;;20.40;44.70;;;;;;6074354;29;20045;-46
2023/01/08 07:19:28;;;;;;;0.43;0.20;;;20.60;44.80;;;;;;6074112;29;20056;-44
2023/01/08 07:22:29;;;;;;;0.50;0.17;;;20.40;44.70;;;;;;6074297;29;20049;-47
2023/01/08 07:25:31;;;;;;;0.28;0.10;;;20.30;44.60;;;;;;6073373;29;20045;-45
2023/01/08 07:28:33;;;;;;;0.50;0.40;;;20.50;44.70;;;;;;6073207;29;20435;-45
2023/01/08 07:31:35;;;;;;;0.20;0.20;;;20.50;44.70;;;;;;6056288;29;20048;-45
2023/01/08 07:34:37;;;;;;;0.52;0.30;;;20.60;44.90;;;;;;6072909;29;20049;-46
2023/01/08 07:37:38;;;;;;;;;;;20.50;45.00;;;;;;6073929;29;20054;-45
2023/01/08 07:40:40;;;;;;;0.47;0.15;;;20.50;45.20;;;;;;6073775;29;19934;-45
2023/01/08 07:43:41;;;;;;;;;;;20.40;45.00;;;;;;6074032;29;20045;-44
2023/01/08 07:46:43;;;;;;;0.28;0.28;;;20.60;45.50;;;;;;6077108;29;19924;-45
2023/01/08 07:49:45;;;;;;;0.50;0.30;;;20.60;45.20;;;;;;6078118;29;20049;-49
2023/01/08 07:52:46;;;;;;;0.43;0.10;;;20.70;45.40;;;;;;6077536;29;20450;-46
2023/01/08 07:55:47;;;;;;;;;;;20.40;45.40;;;;;;6062166;29;20048;-47
2023/01/08 07:58:49;;;;;;;0.25;0.10;;;20.50;45.60;;;;;;6078977;29;19931;-45
2023/01/08 08:01:51;;;;;;;0.73;0.20;;;20.40;45.40;;;;;;6078346;29;20052;-46
2023/01/08 08:04:52;;;;;;;0.30;0.20;;;20.60;45.50;;;;;;6077920;29;20041;-47
2023/01/08 08:07:54;;;;;;;0.30;0.30;;;20.50;45.50;;;;;;6078579;29;20049;-46
2023/01/08 08:10:55;;;;;;;0.43;0.20;;;20.60;45.70;;;;;;6077879;29;20073;-48
2023/01/08 08:13:57;;;;;;;;;;;20.60;45.60;;;;;;6078592;29;20045;-45
2023/01/08 08:17:00;;;;;;;0.50;0.30;;;20.50;45.80;;;;;;6077404;29;19953;-45
2023/01/08 08:20:01;;;;;;;0.30;0.25;;;20.50;45.60;;;;;;6077405;29;20057;-48
2023/01/08 08:23:03;;;;;;;;;;;20.50;45.50;;;;;;6077870;29;20041;-46
2023/01/08 08:26:06;;;;;;;0.20;0.20;;;20.70;45.80;;;;;;6060752;29;19927;-45
2023/01/08 08:29:08;;;;;;;0.20;0.20;;;20.50;45.50;;;;;;6077766;29;20045;-50
2023/01/08 08:32:10;;;;;;;0.38;0.20;;;20.50;45.50;;;;;;6077242;29;20045;-45
2023/01/08 08:35:11;;;;;;;0.57;0.30;;;20.70;45.60;;;;;;6077772;29;20045;-46
2023/01/08 08:38:12;;;;;;;0.52;0.30;;;20.60;45.40;;;;;;6076761;29;20055;-45
2023/01/08 08:41:16;;;;;;;0.30;0.30;;;20.80;45.60;;;;;;6077533;29;20048;-45
2023/01/08 08:44:17;;;;;;;0.50;0.30;;;20.60;45.40;;;;;;6077727;29;20037;-45
2023/01/08 08:47:20;;;;;;;0.30;0.17;;;20.50;45.30;;;;;;6076491;29;20049;-49
2023/01/08 08:50:22;;;;;;;0.35;0.20;;;20.60;45.30;;;;;;6077482;29;20049;-46
2023/01/08 08:53:23;;;;;;;0.32;0.25;;;20.50;45.20;;;;;;6077068;29;20029;-45
2023/01/08 08:56:28;;;;;;;0.15;0.15;;;20.80;45.40;;;;;;6075905;29;20056;-45
2023/01/08 08:59:29;;;;;;;0.45;0.20;;;20.30;45.00;;;;;;6076757;29;20045;-47
2023/01/08 09:02:32;;;;;;;0.63;0.32;;;20.70;45.30;;;;;;6077551;29;20049;-45
2023/01/08 09:05:35;;;;;;;0.35;0.30;;;20.80;45.40;;;;;;6077444;29;20049;-48
2023/01/08 09:08:36;;;;;;;0.80;0.38;;;20.60;45.20;;;;;;6076899;29;20049;-45
2023/01/08 09:11:38;;;;;;;0.45;0.30;;;20.50;45.20;;;;;;6076809;29;20049;-45
2023/01/08 09:14:39;;;;;;;;;;;20.70;45.90;;;;;;6077641;29;20402;-47
2023/01/08 09:17:41;;;;;;;0.35;0.22;;;20.80;45.70;;;;;;6076820;29;19924;-45
2023/01/08 09:20:43;;;;;;;0.30;0.13;;;20.30;45.20;;;;;;6076441;29;20045;-46
2023/01/08 09:23:46;;;;;;;;;;;20.70;45.40;;;;;;6076670;29;20045;-47
2023/01/08 09:26:48;;;;;;;0.65;0.30;;;20.60;45.70;;;;;;6076741;29;19924;-45
2023/01/08 09:29:51;;;;;;;0.30;0.20;;;20.70;45.50;;;;;;6076073;29;20115;-45
2023/01/08 09:32:56;;;;;;;0.25;0.10;;;20.70;45.60;;;;;;6076444;29;20045;-48
2023/01/08 09:35:58;;;;;;;0.63;0.30;;;20.70;45.70;;;;;;6059956;29;20049;-50
2023/01/08 09:39:00;;;;;;;0.75;0.28;;;20.70;45.80;;;;;;6075568;29;20078;-47
2023/01/08 09:42:04;;;;;;;0.32;0.30;;;20.80;46.10;;;;;;6076429;29;20040;-47
2023/01/08 09:45:11;;;;;;;1.10;0.20;;;20.60;45.90;;;;;;6076479;29;20052;-49
2023/01/08 09:48:17;;;;;;;0.40;0.30;;;20.80;46.10;;;;;;6075786;29;20045;-46
2023/01/08 09:51:19;;;;;;;0.70;0.40;;;20.70;46.20;;;;;;6076107;29;20048;-47
2023/01/08 09:54:24;;;;;;;0.28;0.20;;;20.80;46.40;;;;;;6076312;29;20045;-45
2023/01/08 09:57:26;;;;;;;0.38;0.15;;;20.90;46.50;;;;;;6075809;29;20045;-46
2023/01/08 10:00:30;;;;;;;0.68;0.32;;;20.80;46.60;;;;;;6075513;29;20041;-46
2023/01/08 10:03:39;;;;;;;0.30;0.20;;;20.90;46.80;;;;;;6075876;29;20041;-46
2023/01/08 10:06:45;;;;;;;0.30;0.20;;;20.80;46.90;;;;;;6075782;29;20049;-46
2023/01/08 10:09:48;;;;;;;0.30;0.20;;;20.40;46.70;;;;;;6076171;29;20051;-47
2023/01/08 10:12:50;;;;;;;0.32;0.30;;;20.90;47.10;;;;;;6044863;29;20045;-46
2023/01/08 10:15:52;;;;;;;0.20;0.20;;;20.70;47.10;;;;;;6076873;29;20041;-46
2023/01/08 10:18:54;;;;;;;0.30;0.20;;;21.00;47.30;;;;;;6076641;29;20049;-45
2023/01/08 10:21:56;;;;;;;0.50;0.30;;;20.80;47.30;;;;;;6076803;29;20049;-46
2023/01/08 10:25:09;;;;;;;0.30;0.30;;;20.50;47.20;;;;;;6076391;29;20490;-46
2023/01/08 10:28:18;;;;;;;0.73;0.20;;;20.80;47.50;;;;;;6061015;29;20494;-45
2023/01/08 10:31:20;;;;;;;0.77;0.30;;;20.90;47.50;;;;;;6060393;29;20049;-49
2023/01/08 10:34:26;;;;;;;0.70;0.40;;;20.90;47.50;;;;;;6076252;29;20045;-50
2023/01/08 10:37:30;;;;;;;0.77;0.25;;;21.00;47.50;;;;;;6043841;29;20101;-47
2023/01/08 10:40:36;;;;;;;0.47;0.30;;;20.30;47.20;;;;;;6075129;29;20049;-47
2023/01/08 10:43:47;;;;;;;0.30;0.30;;;21.00;47.70;;;;;;6058548;29;20069;-46
2023/01/08 10:46:53;;;;;;;0.25;0.22;;;20.90;47.70;;;;;;6075577;29;20045;-45
2023/01/08 10:49:56;;;;;;;0.95;0.40;;;20.80;47.60;;;;;;6075500;29;20049;-46
2023/01/08 10:53:00;;;;;;;0.38;0.30;;;20.90;47.70;;;;;;6075759;29;20044;-48
2023/01/08 10:56:03;;;;;;;0.38;0.20;;;21.10;47.80;;;;;;6060211;29;20037;-45
2023/01/08 10:59:05;;;;;;;0.52;0.20;;;21.00;47.70;;;;;;6076225;29;20049;-45
2023/01/08 11:02:18;;;;;;;;;;;20.90;47.70;;;;;;6077315;29;20069;-46
2023/01/08 11:05:28;;;;;;;0.60;0.28;;;21.00;47.80;;;;;;6076522;29;19959;-48
2023/01/08 11:08:30;;;;;;;0.10;0.10;;;20.80;47.50;;;;;;6060255;29;20049;-46
2023/01/08 11:11:33;;;;;;;;;;;20.90;47.50;;;;;;6076259;29;20540;-46
2023/01/08 11:14:35;;;;;;;0.75;0.30;;;20.80;47.60;;;;;;6076407;29;19931;-48
2023/01/08 11:17:36;;;;;;;0.60;0.20;;;20.90;47.40;;;;;;6076056;29;20045;-46
2023/01/08 11:20:38;;;;;;;;;;;20.80;47.40;;;;;;6076776;29;20052;-45
2023/01/08 11:23:40;;;;;;;0.30;0.30;;;20.90;47.60;;;;;;6079526;29;19987;-46
2023/01/08 11:26:45;;;;;;;0.20;0.17;;;20.90;47.40;;;;;;6079655;29;20073;-47
2023/01/08 11:29:55;;;;;;;0.30;0.22;;;20.90;47.20;;;;;;6063909;29;20052;-45
2023/01/08 11:33:03;;;;;;;0.20;0.15;;;20.70;47.10;;;;;;6080447;29;20044;-45
2023/01/08 11:36:13;;;;;;;0.30;0.28;;;21.00;47.30;;;;;;6064189;29;20041;-48
2023/01/08 11:39:16;;;;;;;0.63;0.32;;;20.90;47.20;;;;;;6080077;29;20049;-46
2023/01/08 11:42:33;;;;;;;0.60;0.22;;;21.10;47.40;;;;;;6080392;29;20041;-47
2023/01/08 11:45:46;;;;;;;1.05;0.30;;;20.80;47.20;;;;;;6080925;29;20049;-45
2023/01/08 11:49:06;;;;;;;0.35;0.22;;;20.90;47.30;;;;;;6080697;29;20044;-45
2023/01/08 11:52:22;;;;;;;0.50;0.30;;;21.00;47.30;;;;;;6079147;29;20041;-47
2023/01/08 11:55:39;;;;;;;0.63;0.30;;;20.80;47.40;;;;;;6062800;29;20052;-47
2023/01/08 11:58:53;;;;;;;0.60;0.35;;;21.00;47.40;;;;;;6079707;29;20051;-48
2023/01/08 12:02:07;;;;;;;0.52;0.20;;;20.90;47.30;;;;;;6079387;29;20041;-46
2023/01/08 12:05:25;;;;;;;0.30;0.20;;;21.00;47.40;;;;;;6079704;29;20048;-45
2023/01/08 12:08:36;;;;;;;0.30;0.20;;;21.20;47.50;;;;;;6065274;29;20047;-45
2023/01/08 12:11:44;;;;;;;0.75;0.25;;;20.80;47.40;;;;;;6078821;29;20037;-45
2023/01/08 12:14:57;;;;;;;0.40;0.20;;;21.00;47.50;;;;;;6063496;29;20045;-45
2023/01/08 12:18:14;;;;;;;0.70;0.40;;;21.00;47.50;;;;;;6079246;29;20506;-46
2023/01/08 12:21:23;;;;;;;0.30;0.20;;;20.90;47.40;;;;;;6079204;29;20430;-48
2023/01/08 12:24:43;;;;;;;0.10;0.08;;;21.10;47.60;;;;;;6079720;29;20041;-47
2023/01/08 12:27:57;;;;;;;0.35;0.30;;;20.80;47.40;;;;;;6078505;29;20406;-46
2023/01/08 12:31:17;;;;;;;0.63;0.35;;;21.00;47.50;;;;;;6078574;29;20049;-49
2023/01/08 12:34:29;;;;;;;0.30;0.25;;;21.10;47.60;;;;;;6078302;29;20076;-45
2023/01/08 12:37:37;;;;;;;0.20;0.20;;;21.10;47.60;;;;;;6078079;29;20049;-46
2023/01/08 12:40:42;;;;;;;0.73;0.30;;;21.10;47.70;;;;;;6061949;29;20053;-47
2023/01/08 12:43:51;;;;;;;0.25;0.20;;;20.90;47.60;;;;;;6061745;29;20052;-45
2023/01/08 12:46:57;;;;;;;1.08;0.20;;;21.10;47.70;;;;;;6062147;29;20052;-46
2023/01/08 12:50:09;;;;;;;0.82;0.40;;;21.20;47.70;;;;;;6062298;29;20049;-48
2023/01/08 12:53:19;;;;;;;0.30;0.22;;;21.10;47.80;;;;;;6078201;29;20048;-50
2023/01/08 12:56:30;;;;;;;0.30;0.13;;;21.10;47.80;;;;;;6078235;29;20051;-46
2023/01/08 12:59:41;;;;;;;0.40;0.20;;;21.00;47.90;;;;;;6077250;29;20045;-49
2023/01/08 13:02:51;;;;;;;0.25;0.20;;;21.20;48.10;;;;;;6077698;29;20052;-49
2023/01/08 13:06:05;;;;;;;0.40;0.20;;;21.10;48.10;;;;;;6061550;29;20048;-45
2023/01/08 13:09:06;;;;;;;0.68;0.28;;;21.00;48.10;;;;;;6077603;29;20049;-49
2023/01/08 13:12:14;;;;;;;0.40;0.30;;;21.10;48.20;;;;;;6078371;29;20045;-45
2023/01/08 13:15:20;;;;;;;0.55;0.30;;;20.80;48.10;;;;;;6078087;29;20047;-46
2023/01/08 13:18:21;;;;;;;0.22;0.22;;;21.10;48.30;;;;;;6062122;29;20105;-46
2023/01/08 13:21:27;;;;;;;;;;;21.10;48.40;;;;;;6077810;29;20052;-48
2023/01/08 13:24:31;;;;;;;0.43;0.28;;;21.20;48.60;;;;;;6077492;29;19949;-48
2023/01/08 13:27:33;;;;;;;0.40;0.30;;;21.10;48.40;;;;;;6045544;29;20041;-44
2023/01/08 13:30:39;;;;;;;0.35;0.30;;;21.20;48.50;;;;;;6076934;29;20052;-46
2023/01/08 13:33:42;;;;;;;0.90;0.20;;;21.20;48.60;;;;;;6061132;29;20049;-46
2023/01/08 13:36:54;;;;;;;0.50;0.22;;;21.20;48.60;;;;;;6077864;29;20122;-46
2023/01/08 13:39:56;;;;;;;0.40;0.22;;;21.20;48.70;;;;;;6077232;29;20048;-49
2023/01/08 13:42:59;;;;;;;0.40;0.28;;;21.20;48.70;;;;;;6077140;29;20524;-47
2023/01/08 13:46:07;;;;;;;0.75;0.30;;;21.20;48.70;;;;;;6077640;29;20505;-45
2023/01/08 13:49:22;;;;;;;0.52;0.20;;;21.20;48.70;;;;;;6061065;29;20045;-47
2023/01/08 13:52:36;;;;;;;0.60;0.30;;;21.30;48.80;;;;;;6077291;29;20414;-47
2023/01/08 13:55:40;;;;;;;0.43;0.30;;;21.10;48.60;;;;;;6062072;29;20045;-47
2023/01/08 13:58:45;;;;;;;0.25;0.20;;;21.10;48.60;;;;;;6077779;29;20041;-47
2023/01/08 14:01:55;;;;;;;0.73;0.52;;;21.30;48.60;;;;;;6045575;29;20041;-45
2023/01/08 14:04:58;;;;;;;0.20;0.20;;;21.30;48.60;;;;;;6076530;29;20072;-47
2023/01/08 14:08:00;;;;;;;0.30;0.20;;;21.20;48.40;;;;;;6060714;29;20069;-44
2023/01/08 14:11:04;;;;;;;0.30;0.20;;;21.20;48.50;;;;;;6076818;29;20065;-46
2023/01/08 14:14:09;;;;;;;0.20;0.20;;;21.20;48.30;;;;;;6077643;29;20063;-47
2023/01/08 14:17:15;;;;;;;0.30;0.20;;;20.90;48.10;;;;;;6077161;29;20041;-46
2023/01/08 14:20:33;;;;;;;0.22;0.10;;;21.20;48.30;;;;;;6076245;29;20074;-47
2023/01/08 14:23:39;;;;;;;0.40;0.20;;;21.20;48.30;;;;;;6077088;29;20111;-49
2023/01/08 14:26:41;;;;;;;0.52;0.20;;;21.30;48.40;;;;;;6075886;29;20109;-47
2023/01/08 14:29:44;;;;;;;0.28;0.20;;;21.20;48.50;;;;;;6076068;29;20040;-47
2023/01/08 14:32:46;;;;;;;0.25;0.20;;;21.20;48.60;;;;;;6059385;29;20387;-45
2023/01/08 14:35:50;;;;;;;0.73;0.20;;;21.30;48.40;;;;;;6075227;29;20048;-45
2023/01/08 14:38:51;;;;;;;0.28;0.25;;;21.20;48.10;;;;;;6075503;29;20052;-48
2023/01/08 14:45:17;;;;;;;0.45;0.20;;;20.90;47.60;;;;;;6074352;29;19924;-48
2023/01/08 14:48:23;;;;;;;0.20;0.20;;;21.10;47.30;;;;;;6073799;29;20066;-46
2023/01/08 14:51:28;;;;;;;0.20;0.20;;;21.20;47.00;;;;;;6074808;29;20074;-45
2023/01/08 14:54:32;;;;;;;0.20;0.17;;;21.10;46.60;;;;;;6074180;29;20041;-48
2023/01/08 14:57:34;;;;;;;0.28;0.20;;;21.10;46.40;;;;;;6058427;29;20060;-49
2023/01/08 15:00:36;;;;;;;;;;;21.10;46.20;;;;;;6075569;29;20494;-46
2023/01/08 15:03:40;;;;;;;0.20;0.20;;;21.00;46.40;;;;;;6075433;29;19924;-50
2023/01/08 15:06:42;;;;;;;0.20;0.20;;;21.00;46.20;;;;;;6075402;29;20493;-46
2023/01/08 15:09:55;;;;;;;0.10;0.10;;;21.10;46.00;;;;;;6074789;29;20041;-46
2023/01/08 15:12:59;;;;;;;0.45;0.30;;;21.20;46.00;;;;;;6058651;29;20052;-44
2023/01/08 15:16:06;;;;;;;0.20;0.10;;;21.10;45.90;;;;;;6075021;29;20494;-49
2023/01/08 15:19:12;;;;;;;0.20;0.20;;;21.10;45.80;;;;;;6074130;29;20051;-48
2023/01/08 15:22:18;;;;;;;0.20;0.20;;;21.10;45.70;;;;;;6073907;29;20049;-45
2023/01/08 15:25:23;;;;;;;0.30;0.10;;;21.20;46.20;;;;;;6074066;29;20049;-46
2023/01/08 15:28:26;;;;;;;0.10;0.10;;;20.90;45.40;;;;;;6057808;29;20048;-48
2023/01/08 15:31:30;;;;;;;0.20;0.17;;;21.10;45.60;;;;;;6073617;29;20065;-45
2023/01/08 15:34:32;;;;;;;0.20;0.20;;;21.00;45.30;;;;;;6073099;29;20062;-47
2023/01/08 15:37:33;;;;;;;0.10;0.10;;;21.00;45.30;;;;;;6073346;29;20051;-47
2023/01/08 15:40:35;;;;;;;0.10;0.10;;;21.10;45.30;;;;;;6073328;29;20045;-47
2023/01/08 15:43:36;;;;;;;0.40;0.20;;;21.00;45.10;;;;;;6073483;29;20048;-47
2023/01/08 15:46:38;;;;;;;;;;;21.00;45.10;;;;;;6074134;29;20045;-47
2023/01/08 15:49:39;;;;;;;;;;;21.10;45.30;;;;;;6073980;29;19923;-44
2023/01/08 15:52:42;;;;;;;0.20;0.10;;;20.80;45.30;;;;;;6073037;29;19927;-50
2023/01/08 15:55:45;;;;;;;0.45;0.30;;;20.80;45.00;;;;;;6072839;29;20045;-51
2023/01/08 15:58:47;;;;;;;0.15;0.15;;;20.90;45.00;;;;;;6073330;29;20041;-45
2023/01/08 16:01:49;;;;;;;;;;;20.90;44.80;;;;;;6074019;29;20051;-45
2023/01/08 16:04:51;;;;;;;0.28;0.20;;;21.10;45.20;;;;;;6073316;29;19947;-48
2023/01/08 16:07:53;;;;;;;0.10;0.10;;;20.60;44.70;;;;;;6060402;29;20093;-48
2023/01/08 16:10:54;;;;;;;0.10;0.10;;;20.90;44.80;;;;;;6078409;29;20184;-47